createdAt,value
2022-12-16T00:01:23.094Z,8.80
2022-12-16T00:03:52.034Z,7.00
2022-12-16T00:06:20.119Z,7.97
2022-12-16T00:08:47.394Z,7.68
2022-12-16T00:11:14.878Z,6.90
2022-12-16T00:13:45.063Z,6.97
2022-12-16T00:16:14.084Z,5.97
2022-12-16T00:18:41.762Z,5.28
2022-12-16T00:21:09.519Z,5.47
2022-12-16T00:23:39.112Z,4.32
2022-12-16T00:26:06.666Z,4.97
2022-12-16T00:28:34.071Z,3.30
2022-12-16T00:31:01.413Z,4.28
2022-12-16T00:33:28.791Z,2.33
2022-12-16T00:35:59.454Z,2.30
2022-12-16T00:38:29.766Z,2.47
2022-12-16T00:40:57.233Z,2.17
2022-12-16T00:43:24.542Z,2.38
2022-12-16T00:45:51.963Z,2.05
2022-12-16T00:48:23.786Z,2.60
2022-12-16T00:50:51.857Z,2.10
2022-12-16T00:53:19.442Z,2.20
2022-12-16T00:55:46.719Z,2.65
2022-12-16T00:58:14.260Z,1.80
2022-12-16T01:00:41.989Z,2.22
2022-12-16T01:03:09.451Z,1.95
2022-12-16T01:05:41.624Z,2.90
2022-12-16T01:08:08.881Z,2.33
2022-12-16T01:10:36.222Z,2.70
2022-12-16T01:13:03.545Z,3.10
2022-12-16T01:15:30.854Z,3.15
2022-12-16T01:17:58.110Z,3.10
2022-12-16T01:20:25.471Z,3.15
2022-12-16T01:22:52.681Z,3.15
2022-12-16T01:25:20.009Z,3.03
2022-12-16T01:27:47.274Z,3.88
2022-12-16T01:30:14.578Z,3.60
2022-12-16T01:32:41.778Z,3.53
2022-12-16T01:35:29.472Z,3.75
2022-12-16T01:37:58.989Z,3.30
2022-12-16T01:40:26.353Z,2.50
2022-12-16T01:42:53.624Z,3.00
2022-12-16T01:45:29.957Z,3.40
2022-12-16T01:47:59.131Z,2.83
2022-12-16T01:50:26.700Z,3.00
2022-12-16T01:52:56.518Z,2.33
2022-12-16T01:58:11.174Z,3.13
2022-12-16T02:00:39.197Z,2.72
2022-12-16T02:03:06.940Z,3.03
2022-12-16T02:05:36.751Z,2.50
2022-12-16T02:10:55.192Z,2.72
2022-12-16T02:13:29.835Z,2.35
2022-12-16T02:16:00.389Z,2.67
2022-12-16T02:18:37.878Z,2.45
2022-12-16T02:21:09.554Z,2.30
2022-12-16T02:23:59.708Z,3.22
2022-12-16T02:26:45.765Z,2.55
2022-12-16T02:29:13.065Z,2.58
2022-12-16T02:31:53.763Z,2.10
2022-12-16T02:34:22.354Z,2.05
2022-12-16T02:36:49.602Z,2.20
2022-12-16T02:39:32.243Z,3.15
2022-12-16T02:42:11.702Z,2.15
2022-12-16T02:44:58.180Z,2.70
2022-12-16T02:47:25.609Z,2.13
2022-12-16T02:49:54.035Z,2.22
2022-12-16T02:52:28.662Z,2.30
2022-12-16T02:55:00.221Z,2.50
2022-12-16T02:57:27.440Z,2.10
2022-12-16T03:00:02.961Z,2.53
2022-12-16T03:02:48.876Z,2.30
2022-12-16T03:05:19.823Z,2.17
2022-12-16T03:07:48.216Z,2.67
2022-12-16T03:10:17.647Z,2.72
2022-12-16T03:12:45.961Z,2.10
2022-12-16T03:15:15.665Z,2.33
2022-12-16T03:20:13.232Z,4.38
2022-12-16T03:22:43.511Z,1.90
2022-12-16T03:25:11.285Z,2.10
2022-12-16T03:27:42.593Z,2.03
2022-12-16T03:30:22.581Z,2.13
2022-12-16T03:32:56.346Z,3.28
2022-12-16T03:35:26.291Z,2.30
2022-12-16T03:37:55.401Z,2.20
2022-12-16T03:40:24.045Z,1.98
2022-12-16T03:42:52.399Z,2.22
2022-12-16T03:45:29.093Z,2.10
2022-12-16T03:47:57.988Z,1.80
2022-12-16T03:50:27.902Z,1.58
2022-12-16T03:52:55.246Z,2.38
2022-12-16T03:55:22.833Z,1.73
2022-12-16T03:57:50.073Z,2.40
2022-12-16T04:00:17.606Z,1.67
2022-12-16T04:02:45.236Z,1.80
2022-12-16T04:05:12.642Z,2.08
2022-12-16T04:07:39.922Z,2.35
2022-12-16T04:10:07.555Z,1.75
2022-12-16T04:13:07.100Z,2.10
2022-12-16T04:15:53.275Z,2.03
2022-12-16T04:18:39.450Z,3.03
2022-12-16T04:21:25.382Z,2.33
2022-12-16T04:24:13.131Z,2.95
2022-12-16T04:26:59.007Z,2.50
2022-12-16T04:29:26.347Z,2.00
2022-12-16T04:31:53.676Z,2.25
2022-12-16T04:34:27.724Z,3.47
2022-12-16T04:37:14.559Z,2.40
2022-12-16T04:40:00.633Z,2.63
2022-12-16T04:42:46.970Z,1.88
2022-12-16T04:45:32.952Z,2.15
2022-12-16T04:48:19.118Z,2.28
2022-12-16T04:51:05.083Z,3.03
2022-12-16T04:53:51.029Z,2.90
2022-12-16T04:56:36.926Z,2.35
2022-12-16T04:59:23.219Z,2.10
2022-12-16T05:02:09.278Z,3.10
2022-12-16T05:04:55.053Z,2.40
2022-12-16T05:07:41.075Z,2.20
2022-12-16T05:10:27.525Z,3.85
2022-12-16T05:13:13.712Z,2.63
2022-12-16T05:15:59.727Z,2.13
2022-12-16T05:18:45.879Z,2.50
2022-12-16T05:21:31.931Z,2.50
2022-12-16T05:24:18.126Z,2.47
2022-12-16T05:27:04.076Z,3.10
2022-12-16T05:29:50.285Z,2.53
2022-12-16T05:32:36.386Z,2.50
2022-12-16T05:35:22.305Z,3.08
2022-12-16T05:38:08.186Z,2.20
2022-12-16T05:40:54.160Z,2.28
2022-12-16T05:43:41.194Z,3.40
2022-12-16T05:46:27.374Z,2.70
2022-12-16T05:49:13.408Z,2.70
2022-12-16T05:51:59.641Z,2.47
2022-12-16T05:54:45.284Z,2.95
2022-12-16T05:57:31.031Z,3.05
2022-12-16T06:00:17.092Z,2.80
2022-12-16T06:03:03.104Z,3.25
2022-12-16T06:05:49.170Z,2.80
2022-12-16T06:08:35.313Z,3.08
2022-12-16T06:11:21.072Z,3.17
2022-12-16T06:14:07.118Z,3.10
2022-12-16T06:16:53.492Z,2.90
2022-12-16T06:19:39.213Z,3.17
2022-12-16T06:22:25.021Z,3.45
2022-12-16T06:25:10.802Z,3.38
2022-12-16T06:27:56.964Z,3.13
2022-12-16T06:30:43.051Z,2.75
2022-12-16T06:33:29.084Z,4.05
2022-12-16T06:36:15.145Z,3.20
2022-12-16T06:39:00.998Z,2.92
2022-12-16T06:41:46.826Z,3.35
2022-12-16T06:44:32.664Z,3.47
2022-12-16T06:47:18.722Z,4.15
2022-12-16T06:50:04.728Z,3.55
2022-12-16T06:52:53.546Z,3.30
2022-12-16T06:55:39.251Z,3.15
2022-12-16T06:58:25.467Z,3.40
2022-12-16T07:01:11.453Z,4.03
2022-12-16T07:03:57.667Z,4.90
2022-12-16T07:06:46.703Z,3.83
2022-12-16T07:09:32.830Z,3.70
2022-12-16T07:12:19.186Z,3.72
2022-12-16T07:15:05.176Z,4.32
2022-12-16T07:17:53.206Z,3.95
2022-12-16T07:20:39.202Z,4.80
2022-12-16T07:23:25.737Z,4.22
2022-12-16T07:26:11.581Z,3.97
2022-12-16T07:28:57.704Z,5.25
2022-12-16T07:31:45.156Z,4.60
2022-12-16T07:34:34.549Z,4.68
2022-12-16T07:37:23.154Z,4.38
2022-12-16T07:40:09.220Z,4.60
2022-12-16T07:42:55.423Z,4.32
2022-12-16T07:45:45.125Z,4.03
2022-12-16T07:48:31.728Z,4.72
2022-12-16T07:51:17.575Z,5.72
2022-12-16T07:54:03.576Z,4.90
2022-12-16T07:56:49.396Z,5.75
2022-12-16T07:59:35.457Z,4.47
2022-12-16T08:02:21.862Z,4.18
2022-12-16T08:05:07.850Z,4.45
2022-12-16T08:07:53.907Z,3.97
2022-12-16T08:10:41.702Z,4.28
2022-12-16T08:13:27.467Z,4.88
2022-12-16T08:16:13.504Z,4.68
2022-12-16T08:19:00.021Z,4.88
2022-12-16T08:21:46.198Z,5.40
2022-12-16T08:24:32.658Z,4.53
2022-12-16T08:27:21.539Z,3.95
2022-12-16T08:30:07.424Z,6.07
2022-12-16T08:32:59.033Z,7.75
2022-12-16T08:35:48.219Z,6.60
2022-12-16T08:38:34.166Z,6.35
2022-12-16T08:41:20.283Z,6.30
2022-12-16T08:44:06.223Z,6.47
2022-12-16T08:46:52.392Z,5.97
2022-12-16T08:49:38.177Z,7.07
2022-12-16T08:52:28.670Z,6.10
2022-12-16T08:55:14.617Z,5.88
2022-12-16T08:58:00.463Z,6.47
2022-12-16T09:00:47.264Z,5.90
2022-12-16T09:03:33.659Z,6.10
2022-12-16T09:06:20.002Z,7.18
2022-12-16T09:09:05.691Z,6.53
2022-12-16T09:11:51.792Z,6.70
2022-12-16T09:14:37.937Z,6.63
2022-12-16T09:17:24.139Z,7.38
2022-12-16T09:20:09.792Z,7.35
2022-12-16T09:22:55.812Z,6.45
2022-12-16T09:25:42.212Z,8.00
2022-12-16T09:28:28.232Z,10.15
2022-12-16T09:31:14.237Z,10.27
2022-12-16T09:34:00.319Z,10.32
2022-12-16T09:36:46.400Z,12.07
2022-12-16T09:39:32.286Z,11.18
2022-12-16T09:42:24.996Z,12.02
2022-12-16T09:45:23.391Z,12.82
2022-12-16T09:48:28.246Z,12.52
2022-12-16T09:51:15.974Z,10.82
2022-12-16T09:54:02.745Z,9.00
2022-12-16T09:56:50.578Z,7.90
2022-12-16T09:59:41.131Z,7.80
2022-12-16T10:02:31.408Z,6.18
2022-12-16T10:05:17.904Z,4.93
2022-12-16T10:08:18.902Z,4.90
2022-12-16T10:11:26.120Z,4.25
2022-12-16T10:14:20.220Z,4.63
2022-12-16T10:17:19.492Z,3.92
2022-12-16T10:20:16.092Z,3.95
2022-12-16T10:23:05.114Z,5.53
2022-12-16T10:26:07.255Z,3.05
2022-12-16T10:28:58.923Z,4.28
2022-12-16T10:31:45.239Z,4.57
2022-12-16T10:34:34.986Z,4.38
2022-12-16T10:40:10.046Z,4.45
2022-12-16T10:42:59.663Z,3.95
2022-12-16T10:46:06.671Z,5.07
2022-12-16T10:48:56.913Z,4.78
2022-12-16T10:51:46.834Z,4.88
2022-12-16T10:54:51.825Z,5.10
2022-12-16T10:57:57.897Z,5.03
2022-12-16T11:00:58.880Z,4.07
2022-12-16T11:03:46.841Z,5.47
2022-12-16T11:06:36.285Z,4.63
2022-12-16T11:09:35.953Z,4.70
2022-12-16T11:12:40.982Z,4.53
2022-12-16T11:15:41.899Z,4.18
2022-12-16T11:18:35.998Z,4.28
2022-12-16T11:21:30.890Z,4.35
2022-12-16T11:24:28.988Z,3.65
2022-12-16T11:27:16.961Z,3.33
2022-12-16T11:30:28.830Z,3.90
2022-12-16T11:33:16.943Z,3.38
2022-12-16T11:36:09.108Z,4.32
2022-12-16T11:39:00.640Z,3.70
2022-12-16T11:41:55.048Z,3.85
2022-12-16T11:44:50.055Z,3.45
2022-12-16T11:47:51.131Z,3.45
2022-12-16T11:50:39.432Z,3.40
2022-12-16T11:53:32.460Z,3.80
2022-12-16T11:56:19.396Z,3.85
2022-12-16T11:59:09.308Z,3.50
2022-12-16T12:01:58.267Z,3.92
2022-12-16T12:04:44.443Z,3.55
2022-12-16T12:07:30.596Z,3.88
2022-12-16T12:10:28.158Z,4.05
2022-12-16T12:13:23.122Z,4.13
2022-12-16T12:16:18.196Z,4.05
2022-12-16T12:19:10.354Z,4.05
2022-12-16T12:22:17.423Z,3.75
2022-12-16T12:25:09.787Z,4.35
2022-12-16T12:28:12.553Z,4.72
2022-12-16T12:31:05.954Z,4.10
2022-12-16T12:33:53.005Z,3.95
2022-12-16T12:36:38.931Z,4.57
2022-12-16T12:39:31.646Z,4.88
2022-12-16T12:42:30.305Z,4.93
2022-12-16T12:45:34.847Z,4.55
2022-12-16T12:48:26.741Z,4.18
2022-12-16T12:51:29.587Z,5.72
2022-12-16T12:54:21.767Z,4.72
2022-12-16T12:57:11.942Z,4.20
2022-12-16T13:00:02.038Z,4.65
2022-12-16T13:02:50.808Z,4.03
2022-12-16T13:05:39.814Z,4.90
2022-12-16T13:08:44.897Z,4.70
2022-12-16T13:11:35.201Z,4.55
2022-12-16T13:14:21.764Z,4.10
2022-12-16T13:17:10.865Z,3.72
2022-12-16T13:20:00.288Z,4.40
2022-12-16T13:22:54.012Z,3.90
2022-12-16T13:25:58.536Z,4.80
2022-12-16T13:28:50.391Z,3.67
2022-12-16T13:31:40.156Z,4.47
2022-12-16T13:34:35.204Z,4.65
2022-12-16T13:37:28.494Z,3.92
2022-12-16T13:40:38.743Z,4.78
2022-12-16T13:43:25.142Z,3.45
2022-12-16T13:46:16.996Z,3.40
2022-12-16T13:49:03.004Z,3.60
2022-12-16T13:52:02.783Z,4.00
2022-12-16T13:54:51.160Z,3.92
2022-12-16T13:57:38.480Z,3.88
2022-12-16T14:00:25.894Z,3.83
2022-12-16T14:03:12.228Z,4.05
2022-12-16T14:06:02.081Z,3.60
2022-12-16T14:08:52.342Z,4.22
2022-12-16T14:11:42.819Z,3.58
2022-12-16T14:14:42.154Z,4.10
2022-12-16T14:17:33.934Z,3.60
2022-12-16T14:20:34.965Z,3.90
2022-12-16T14:23:55.980Z,4.50
2022-12-16T14:26:39.523Z,3.70
2022-12-16T14:29:34.988Z,3.63
2022-12-16T14:32:20.769Z,4.07
2022-12-16T14:35:06.599Z,4.00
2022-12-16T14:37:53.654Z,3.95
2022-12-16T14:40:40.686Z,4.13
2022-12-16T14:43:33.864Z,3.92
2022-12-16T14:46:20.550Z,4.20
2022-12-16T14:49:07.722Z,5.10
2022-12-16T14:51:54.738Z,3.90
2022-12-16T14:54:41.072Z,4.57
2022-12-16T14:57:38.194Z,4.30
2022-12-16T15:00:28.054Z,4.10
2022-12-16T15:03:16.521Z,4.00
2022-12-16T15:06:03.397Z,4.53
2022-12-16T15:08:51.920Z,4.38
2022-12-16T15:11:39.558Z,3.80
2022-12-16T15:14:26.808Z,3.90
2022-12-16T15:17:17.678Z,4.07
2022-12-16T15:20:06.187Z,5.88
2022-12-16T15:22:52.524Z,5.88
2022-12-16T15:25:45.284Z,6.55
2022-12-16T15:29:06.493Z,8.95
2022-12-16T15:31:55.964Z,10.25
2022-12-16T15:34:51.131Z,9.27
2022-12-16T15:37:41.631Z,10.88
2022-12-16T15:40:40.150Z,9.95
2022-12-16T15:43:26.443Z,10.05
2022-12-16T15:46:12.568Z,10.10
2022-12-16T15:48:58.830Z,10.27
2022-12-16T15:51:47.689Z,11.60
2022-12-16T15:54:38.362Z,9.93
2022-12-16T15:57:44.700Z,6.80
2022-12-16T16:00:41.614Z,6.80
2022-12-16T16:03:37.452Z,7.20
2022-12-16T16:06:24.242Z,6.90
2022-12-16T16:09:10.921Z,7.63
2022-12-16T16:11:56.809Z,7.03
2022-12-16T16:14:42.940Z,7.57
2022-12-16T16:17:39.427Z,8.63
2022-12-16T16:20:39.457Z,8.23
2022-12-16T16:23:25.464Z,9.00
2022-12-16T16:26:12.637Z,9.52
2022-12-16T16:28:58.912Z,11.98
2022-12-16T16:31:44.951Z,11.70
2022-12-16T16:34:34.654Z,11.57
2022-12-16T16:40:06.530Z,11.93
2022-12-16T16:42:55.446Z,12.75
2022-12-16T16:45:41.261Z,13.05
2022-12-16T16:48:32.730Z,14.73
2022-12-16T16:51:19.511Z,16.55
2022-12-16T16:54:06.081Z,16.52
2022-12-16T16:56:55.573Z,19.00
2022-12-16T16:59:42.480Z,20.15
2022-12-16T17:02:46.927Z,16.63
2022-12-16T17:05:33.673Z,18.55
2022-12-16T17:08:19.357Z,16.77
2022-12-16T17:11:06.533Z,16.17
2022-12-16T17:13:55.390Z,15.20
2022-12-16T17:16:43.684Z,17.13
2022-12-16T17:19:29.606Z,16.50
2022-12-16T17:22:15.807Z,16.10
2022-12-16T17:25:01.808Z,14.60
2022-12-16T17:27:47.706Z,12.90
2022-12-16T17:30:35.606Z,13.18
2022-12-16T17:33:21.896Z,13.90
2022-12-16T17:36:11.850Z,12.75
2022-12-16T17:39:02.355Z,13.43
2022-12-16T17:41:49.454Z,13.40
2022-12-16T17:44:35.736Z,13.60
2022-12-16T17:47:22.193Z,14.00
2022-12-16T17:50:08.235Z,12.40
2022-12-16T17:52:55.835Z,12.23
2022-12-16T17:55:42.382Z,11.93
2022-12-16T17:58:30.802Z,10.93
2022-12-16T18:01:21.521Z,10.52
2022-12-16T18:04:07.871Z,10.13
2022-12-16T18:06:54.348Z,10.55
2022-12-16T18:09:40.145Z,8.70
2022-12-16T18:12:26.349Z,8.35
2022-12-16T18:15:18.530Z,9.23
2022-12-16T18:18:07.227Z,10.30
2022-12-16T18:20:53.643Z,9.70
2022-12-16T18:23:40.235Z,9.95
2022-12-16T18:26:27.358Z,11.95
2022-12-16T18:29:13.263Z,11.05
2022-12-16T18:31:59.729Z,11.48
2022-12-16T18:34:45.821Z,11.68
2022-12-16T18:37:32.710Z,11.43
2022-12-16T18:40:19.149Z,10.85
2022-12-16T18:43:05.249Z,11.68
2022-12-16T18:45:54.403Z,11.50
2022-12-16T18:48:40.470Z,14.00
2022-12-16T18:51:27.492Z,11.85
2022-12-16T18:54:13.616Z,12.90
2022-12-16T18:56:59.959Z,14.07
2022-12-16T18:59:45.838Z,13.90
2022-12-16T19:02:32.008Z,17.70
2022-12-16T19:05:18.196Z,20.02
2022-12-16T19:08:04.100Z,20.25
2022-12-16T19:10:50.093Z,18.98
2022-12-16T19:13:36.033Z,29.15
2022-12-16T19:16:25.079Z,35.58
2022-12-16T19:19:19.620Z,28.95
2022-12-16T19:22:06.412Z,29.63
2022-12-16T19:24:56.227Z,29.10
2022-12-16T19:27:42.644Z,28.73
2022-12-16T19:30:29.615Z,29.45
2022-12-16T19:33:15.458Z,26.08
2022-12-16T19:36:01.896Z,23.83
2022-12-16T19:38:47.828Z,21.42
2022-12-16T19:41:37.500Z,18.02
2022-12-16T19:44:23.941Z,19.17
2022-12-16T19:47:09.940Z,20.27
2022-12-16T19:49:56.300Z,18.60
2022-12-16T19:52:42.647Z,20.17
2022-12-16T19:55:29.286Z,21.05
2022-12-16T19:58:15.455Z,22.73
2022-12-16T20:01:01.637Z,25.55
2022-12-16T20:03:48.454Z,24.45
2022-12-16T20:06:34.845Z,25.98
2022-12-16T20:09:20.938Z,25.17
2022-12-16T20:12:07.061Z,25.88
2022-12-16T20:14:53.455Z,26.15
2022-12-16T20:17:39.533Z,25.42
2022-12-16T20:20:25.857Z,27.23
2022-12-16T20:23:14.700Z,31.95
2022-12-16T20:26:00.936Z,29.83
2022-12-16T20:28:47.145Z,30.35
2022-12-16T20:31:33.063Z,27.38
2022-12-16T20:34:19.001Z,30.13
2022-12-16T20:37:06.417Z,27.95
2022-12-16T20:39:56.844Z,27.95
2022-12-16T20:42:44.133Z,28.08
2022-12-16T20:45:34.990Z,28.02
2022-12-16T20:48:21.514Z,26.08
2022-12-16T20:51:14.817Z,24.00
2022-12-16T20:54:01.148Z,23.35
2022-12-16T20:56:47.830Z,22.33
2022-12-16T20:59:33.674Z,24.27
2022-12-16T21:02:25.182Z,25.63
2022-12-16T21:05:13.972Z,23.05
2022-12-16T21:08:00.258Z,25.45
2022-12-16T21:10:56.037Z,26.60
2022-12-16T21:13:43.258Z,24.05
2022-12-16T21:16:29.974Z,23.17
2022-12-16T21:19:16.050Z,22.85
2022-12-16T21:22:01.853Z,23.58
2022-12-16T21:24:47.686Z,20.88
2022-12-16T21:27:33.667Z,23.55
2022-12-16T21:30:19.530Z,23.85
2022-12-16T21:33:05.621Z,26.88
2022-12-16T21:35:51.597Z,28.60
2022-12-16T21:38:37.737Z,24.02
2022-12-16T21:41:23.725Z,25.90
2022-12-16T21:44:10.882Z,27.20
2022-12-16T21:46:57.031Z,28.20
2022-12-16T21:49:43.303Z,29.15
2022-12-16T21:52:29.194Z,30.95
2022-12-16T21:55:15.058Z,30.95
2022-12-16T21:58:02.435Z,31.80
2022-12-16T22:00:48.119Z,34.45
2022-12-16T22:03:35.181Z,30.80
2022-12-16T22:06:21.446Z,32.88
2022-12-16T22:09:07.382Z,33.50
2022-12-16T22:11:56.247Z,34.42
2022-12-16T22:14:42.562Z,24.33
2022-12-16T22:17:28.916Z,32.65
2022-12-16T22:20:14.764Z,33.42
2022-12-16T22:23:00.945Z,33.40
2022-12-16T22:25:46.784Z,34.35
2022-12-16T22:28:32.779Z,31.50
2022-12-16T22:31:18.886Z,33.78
2022-12-16T22:34:08.224Z,34.75
2022-12-16T22:36:54.141Z,27.38
2022-12-16T22:39:44.877Z,31.83
2022-12-16T22:42:31.982Z,33.22
2022-12-16T22:45:17.971Z,32.22
2022-12-16T22:48:06.492Z,34.05
2022-12-16T22:50:56.253Z,32.80
2022-12-16T22:53:42.936Z,34.30
2022-12-16T22:56:29.697Z,32.03
2022-12-16T22:59:15.993Z,33.80
2022-12-16T23:02:01.997Z,33.88
2022-12-16T23:04:48.145Z,33.47
2022-12-16T23:07:34.426Z,31.85
2022-12-16T23:10:20.525Z,33.55
2022-12-16T23:13:06.727Z,32.33
2022-12-16T23:15:52.888Z,32.83
2022-12-16T23:18:42.644Z,30.55
2022-12-16T23:21:35.623Z,28.05
2022-12-16T23:24:21.799Z,29.58
2022-12-16T23:27:08.162Z,31.27
2022-12-16T23:29:56.764Z,31.08
2022-12-16T23:32:43.292Z,30.67
2022-12-16T23:35:29.369Z,30.60
2022-12-16T23:38:22.066Z,35.10
2022-12-16T23:41:08.372Z,31.70
2022-12-16T23:43:56.321Z,26.90
2022-12-16T23:46:42.618Z,29.10
2022-12-16T23:49:28.849Z,30.98
2022-12-16T23:52:14.646Z,32.42
2022-12-16T23:55:00.632Z,33.95
2022-12-16T23:57:54.037Z,32.78
